createdAt,value
2023-02-15T00:02:36.447Z,0.13
2023-02-15T00:05:38.430Z,0.17
2023-02-15T00:08:40.463Z,0.08
2023-02-15T00:11:52.520Z,0.11
2023-02-15T00:14:54.455Z,0.08
2023-02-15T00:17:58.391Z,0.03
2023-02-15T00:21:05.786Z,0.03
2023-02-15T00:24:10.036Z,0.01
2023-02-15T00:27:12.021Z,0.02
2023-02-15T00:30:14.906Z,0.00
2023-02-15T00:33:16.896Z,0.02
2023-02-15T00:36:18.760Z,0.01
2023-02-15T00:39:20.846Z,0.00
2023-02-15T00:42:22.730Z,0.02
2023-02-15T00:45:24.641Z,-0.02
2023-02-15T00:48:27.656Z,-0.04
2023-02-15T00:51:29.715Z,0.03
2023-02-15T00:54:31.602Z,0.06
2023-02-15T00:57:33.556Z,0.09
2023-02-15T01:00:35.635Z,0.06
2023-02-15T01:03:37.718Z,0.08
2023-02-15T01:06:39.697Z,0.04
2023-02-15T01:09:41.612Z,0.03
2023-02-15T01:12:44.461Z,-0.04
2023-02-15T01:15:46.453Z,-0.07
2023-02-15T01:18:48.842Z,-0.08
2023-02-15T01:21:50.944Z,-0.14
2023-02-15T01:24:53.012Z,-0.17
2023-02-15T01:27:54.856Z,-0.19
2023-02-15T01:30:56.854Z,-0.15
2023-02-15T01:33:58.822Z,-0.21
2023-02-15T01:37:01.010Z,-0.17
2023-02-15T01:40:04.905Z,-0.16
2023-02-15T01:43:12.041Z,-0.31
2023-02-15T01:46:16.932Z,-0.25
2023-02-15T01:49:22.100Z,-0.24
2023-02-15T01:52:24.069Z,-0.26
2023-02-15T01:55:39.750Z,-0.29
2023-02-15T01:58:43.482Z,-0.31
2023-02-15T02:01:45.782Z,-0.30
2023-02-15T02:04:50.697Z,-0.34
2023-02-15T02:07:58.105Z,-0.34
2023-02-15T02:11:00.056Z,-0.35
2023-02-15T02:14:02.105Z,-0.31
2023-02-15T02:17:35.160Z,-0.40
2023-02-15T02:21:02.656Z,-0.44
2023-02-15T02:24:11.001Z,-0.40
2023-02-15T02:28:07.079Z,-0.47
2023-02-15T02:31:30.816Z,-0.39
2023-02-15T02:34:32.700Z,-0.35
2023-02-15T02:37:55.509Z,-0.36
2023-02-15T02:41:12.345Z,-0.37
2023-02-15T02:44:28.172Z,-0.42
2023-02-15T02:47:39.958Z,-0.40
2023-02-15T02:50:42.678Z,-0.38
2023-02-15T02:53:44.671Z,-0.43
2023-02-15T02:56:51.831Z,-0.41
2023-02-15T02:59:57.513Z,-0.42
2023-02-15T03:03:07.557Z,-0.40
2023-02-15T03:06:18.926Z,-0.38
2023-02-15T03:09:23.857Z,-0.43
2023-02-15T03:12:33.538Z,-0.42
2023-02-15T03:15:59.055Z,-0.41
2023-02-15T03:19:13.556Z,-0.41
2023-02-15T03:22:23.933Z,-0.38
2023-02-15T03:25:34.583Z,-0.41
2023-02-15T03:28:42.430Z,-0.37
2023-02-15T03:31:50.444Z,-0.39
2023-02-15T03:34:52.876Z,-0.31
2023-02-15T03:38:01.948Z,-0.34
2023-02-15T03:41:12.033Z,-0.40
2023-02-15T03:44:48.934Z,-0.47
2023-02-15T03:47:53.712Z,-0.37
2023-02-15T03:51:19.189Z,-0.39
2023-02-15T03:54:44.640Z,-0.40
2023-02-15T03:58:05.905Z,-0.39
2023-02-15T04:01:58.538Z,-0.44
2023-02-15T04:05:00.338Z,-0.36
2023-02-15T04:08:02.941Z,-0.38
2023-02-15T04:11:04.877Z,-0.35
2023-02-15T04:14:26.687Z,-0.39
2023-02-15T04:17:28.884Z,-0.35
2023-02-15T04:20:49.481Z,-0.39
2023-02-15T04:24:10.148Z,-0.39
2023-02-15T04:27:12.119Z,-0.37
2023-02-15T04:30:15.951Z,-0.33
2023-02-15T04:33:17.931Z,-0.40
2023-02-15T04:36:19.834Z,-0.43
2023-02-15T04:39:21.738Z,-0.40
2023-02-15T04:42:23.625Z,-0.34
2023-02-15T04:45:25.495Z,-0.38
2023-02-15T04:48:27.423Z,-0.36
2023-02-15T04:51:29.533Z,-0.39
2023-02-15T04:54:31.393Z,-0.42
2023-02-15T04:57:33.282Z,-0.39
2023-02-15T05:00:35.271Z,-0.36
2023-02-15T05:03:37.380Z,-0.36
2023-02-15T05:06:39.264Z,-0.34
2023-02-15T05:09:41.231Z,-0.39
2023-02-15T05:12:43.129Z,-0.34
2023-02-15T05:15:52.505Z,-0.35
2023-02-15T05:18:54.629Z,-0.39
2023-02-15T05:21:56.893Z,-0.32
2023-02-15T05:25:17.292Z,-0.28
2023-02-15T05:28:20.345Z,-0.32
2023-02-15T05:31:22.280Z,-0.35
2023-02-15T05:34:24.295Z,-0.33
2023-02-15T05:37:26.213Z,-0.40
2023-02-15T05:40:28.206Z,-0.29
2023-02-15T05:43:30.540Z,-0.29
2023-02-15T05:46:32.736Z,-0.48
2023-02-15T05:49:34.763Z,-0.32
2023-02-15T05:52:37.120Z,-0.25
2023-02-15T05:55:40.075Z,-0.19
2023-02-15T05:58:42.784Z,-0.20
2023-02-15T06:01:44.711Z,-0.15
2023-02-15T06:04:46.633Z,-0.19
2023-02-15T06:07:48.581Z,-0.20
2023-02-15T06:10:50.554Z,-0.17
2023-02-15T06:13:52.499Z,-0.21
2023-02-15T06:16:54.506Z,-0.12
2023-02-15T06:19:57.730Z,-0.08
2023-02-15T06:22:59.602Z,-0.12
2023-02-15T06:26:01.896Z,-0.16
2023-02-15T06:29:04.220Z,-0.18
2023-02-15T06:32:06.508Z,-0.11
2023-02-15T06:35:08.917Z,-0.08
2023-02-15T06:38:13.086Z,-0.11
2023-02-15T06:41:14.963Z,-0.03
2023-02-15T06:44:16.855Z,0.05
2023-02-15T06:47:18.792Z,0.05
2023-02-15T06:50:20.855Z,0.11
2023-02-15T06:53:22.776Z,0.04
2023-02-15T06:56:24.731Z,0.04
2023-02-15T06:59:26.617Z,-0.03
2023-02-15T07:02:28.560Z,0.02
2023-02-15T07:05:34.887Z,-0.04
2023-02-15T07:08:38.072Z,-0.02
2023-02-15T07:11:58.568Z,0.02
2023-02-15T07:15:00.784Z,0.03
2023-02-15T07:18:02.700Z,0.05
2023-02-15T07:21:04.891Z,0.05
2023-02-15T07:24:07.230Z,0.01
2023-02-15T07:27:09.188Z,-0.00
2023-02-15T07:30:13.291Z,-0.05
2023-02-15T07:33:24.069Z,0.14
2023-02-15T07:36:25.948Z,0.16
2023-02-15T07:39:27.909Z,0.25
2023-02-15T07:42:31.794Z,0.43
2023-02-15T07:45:33.757Z,0.51
2023-02-15T07:48:36.545Z,0.56
2023-02-15T07:51:38.558Z,0.57
2023-02-15T07:54:40.452Z,0.45
2023-02-15T07:57:47.005Z,0.27
2023-02-15T08:00:58.124Z,0.13
2023-02-15T08:04:00.417Z,0.07
2023-02-15T08:07:02.336Z,0.17
2023-02-15T08:10:04.434Z,0.33
2023-02-15T08:13:06.363Z,0.39
2023-02-15T08:16:08.344Z,0.50
2023-02-15T08:19:20.579Z,0.53
2023-02-15T08:22:22.475Z,0.78
2023-02-15T08:25:24.343Z,0.93
2023-02-15T08:28:26.219Z,0.92
2023-02-15T08:31:28.720Z,1.07
2023-02-15T08:34:33.936Z,1.08
2023-02-15T08:37:35.784Z,1.00
2023-02-15T08:40:39.096Z,0.83
2023-02-15T08:43:41.493Z,0.69
2023-02-15T08:46:45.524Z,0.67
2023-02-15T08:49:47.470Z,0.64
2023-02-15T08:52:49.335Z,0.67
2023-02-15T08:56:00.677Z,0.74
2023-02-15T08:59:03.712Z,0.76
2023-02-15T09:02:05.753Z,0.87
2023-02-15T09:05:07.954Z,0.98
2023-02-15T09:08:09.828Z,1.11
2023-02-15T09:11:23.469Z,1.29
2023-02-15T09:14:27.201Z,1.33
2023-02-15T09:17:29.062Z,1.13
2023-02-15T09:20:31.041Z,1.04
2023-02-15T09:23:32.870Z,1.09
2023-02-15T09:26:37.641Z,1.08
2023-02-15T09:29:40.183Z,1.01
2023-02-15T09:32:42.172Z,1.00
2023-02-15T09:35:44.022Z,0.87
2023-02-15T09:38:47.313Z,0.88
2023-02-15T09:42:10.670Z,0.78
2023-02-15T09:45:21.730Z,0.75
2023-02-15T09:48:33.954Z,0.66
2023-02-15T09:52:01.905Z,0.60
2023-02-15T09:55:23.213Z,0.62
2023-02-15T09:58:57.652Z,0.76
2023-02-15T10:02:17.860Z,0.77
2023-02-15T10:05:22.902Z,0.76
2023-02-15T10:08:36.941Z,0.81
2023-02-15T10:12:07.635Z,0.74
2023-02-15T10:15:21.720Z,0.76
2023-02-15T10:18:41.988Z,0.75
2023-02-15T10:22:03.354Z,0.74
2023-02-15T10:25:30.875Z,0.73
2023-02-15T10:32:30.462Z,0.67
2023-02-15T10:35:44.416Z,0.84
2023-02-15T10:39:11.664Z,1.06
2023-02-15T10:42:47.741Z,1.11
2023-02-15T10:45:57.868Z,1.08
2023-02-15T10:49:00.948Z,0.99
2023-02-15T10:52:46.711Z,1.10
2023-02-15T10:55:49.464Z,1.16
2023-02-15T10:59:25.208Z,1.20
2023-02-15T11:02:45.256Z,1.10
2023-02-15T11:05:55.921Z,1.04
2023-02-15T11:09:03.030Z,1.05
2023-02-15T11:12:13.828Z,0.99
2023-02-15T11:15:30.247Z,1.15
2023-02-15T11:18:32.136Z,1.16
2023-02-15T11:21:40.119Z,1.13
2023-02-15T11:24:45.157Z,1.04
2023-02-15T11:27:49.880Z,0.98
2023-02-15T11:30:56.162Z,0.95
2023-02-15T11:34:19.877Z,1.05
2023-02-15T11:37:29.684Z,0.99
2023-02-15T11:40:36.590Z,0.94
2023-02-15T11:43:51.128Z,0.97
2023-02-15T11:46:53.217Z,0.97
2023-02-15T11:49:55.284Z,0.97
2023-02-15T11:53:10.336Z,1.00
2023-02-15T11:56:21.439Z,0.95
2023-02-15T11:59:32.550Z,0.83
2023-02-15T12:02:38.185Z,0.88
2023-02-15T12:05:43.265Z,0.81
2023-02-15T12:08:52.523Z,0.70
2023-02-15T12:11:54.451Z,0.79
2023-02-15T12:15:10.078Z,0.95
2023-02-15T12:18:41.015Z,0.99
2023-02-15T12:21:43.211Z,0.90
2023-02-15T12:24:47.814Z,0.82
2023-02-15T12:27:49.899Z,0.74
2023-02-15T12:30:54.391Z,0.80
2023-02-15T12:33:59.263Z,0.83
2023-02-15T12:37:08.826Z,0.75
2023-02-15T12:40:24.799Z,0.58
2023-02-15T12:43:34.681Z,0.51
2023-02-15T12:46:39.604Z,0.49
2023-02-15T12:49:47.525Z,0.40
2023-02-15T12:53:06.355Z,0.30
2023-02-15T12:56:11.373Z,0.25
2023-02-15T12:59:23.967Z,0.24
2023-02-15T13:02:58.767Z,0.23
2023-02-15T13:06:02.640Z,0.25
2023-02-15T13:09:36.529Z,0.25
2023-02-15T13:12:39.065Z,0.31
2023-02-15T13:15:45.539Z,0.32
2023-02-15T13:18:51.660Z,0.29
2023-02-15T13:21:55.850Z,0.20
2023-02-15T13:25:02.611Z,0.13
2023-02-15T13:28:06.178Z,0.15
2023-02-15T13:31:17.032Z,0.07
2023-02-15T13:34:25.625Z,0.00
2023-02-15T13:37:45.822Z,-0.02
2023-02-15T13:40:53.664Z,-0.03
2023-02-15T13:44:16.206Z,-0.09
2023-02-15T13:47:33.674Z,-0.24
2023-02-15T13:50:50.680Z,-0.27
2023-02-15T13:54:04.752Z,-0.22
2023-02-15T13:57:34.137Z,-0.26
2023-02-15T14:00:52.765Z,-0.29
2023-02-15T14:04:13.295Z,-0.26
2023-02-15T14:07:15.246Z,-0.34
2023-02-15T14:10:34.529Z,-0.33
2023-02-15T14:13:39.743Z,-0.29
2023-02-15T14:17:06.555Z,-0.34
2023-02-15T14:20:32.060Z,-0.39
2023-02-15T14:23:52.031Z,-0.45
2023-02-15T14:27:09.145Z,-0.46
2023-02-15T14:30:20.414Z,-0.55
2023-02-15T14:33:56.641Z,-0.64
2023-02-15T14:36:59.024Z,-0.72
2023-02-15T14:40:31.510Z,-0.71
2023-02-15T14:44:03.418Z,-0.68
2023-02-15T14:47:24.048Z,-0.74
2023-02-15T14:50:32.134Z,-0.70
2023-02-15T14:53:37.572Z,-0.77
2023-02-15T14:56:42.301Z,-0.80
2023-02-15T14:59:59.462Z,-0.85
2023-02-15T15:03:02.820Z,-0.82
2023-02-15T15:06:06.834Z,-0.88
2023-02-15T15:09:30.714Z,-0.96
2023-02-15T15:12:35.410Z,-0.95
2023-02-15T15:15:48.215Z,-0.98
2023-02-15T15:18:50.549Z,-0.99
2023-02-15T15:21:57.314Z,-1.06
2023-02-15T15:25:28.754Z,-1.09
2023-02-15T15:28:36.453Z,-1.10
2023-02-15T15:31:57.654Z,-1.20
2023-02-15T15:35:36.058Z,-1.15
2023-02-15T15:38:59.439Z,-1.17
2023-02-15T15:42:24.286Z,-1.21
2023-02-15T15:46:07.464Z,-1.20
2023-02-15T15:49:17.234Z,-1.24
2023-02-15T15:52:22.412Z,-1.20
2023-02-15T15:55:30.201Z,-1.26
2023-02-15T15:58:32.860Z,-1.29
2023-02-15T16:01:42.809Z,-1.27
2023-02-15T16:04:47.192Z,-1.42
2023-02-15T16:07:50.444Z,-1.41
2023-02-15T16:10:52.370Z,-1.39
2023-02-15T16:13:54.972Z,-1.43
2023-02-15T16:17:02.296Z,-1.42
2023-02-15T16:20:15.050Z,-1.37
2023-02-15T16:23:51.344Z,-1.38
2023-02-15T16:27:12.028Z,-1.41
2023-02-15T16:30:29.281Z,-1.48
2023-02-15T16:33:42.361Z,-1.48
2023-02-15T16:36:44.568Z,-1.42
2023-02-15T16:39:49.108Z,-1.48
2023-02-15T16:43:01.606Z,-1.52
2023-02-15T16:46:13.103Z,-1.46
2023-02-15T16:49:27.297Z,-1.48
2023-02-15T16:52:30.256Z,-1.48
2023-02-15T16:55:43.112Z,-1.54
2023-02-15T16:58:47.099Z,-1.53
2023-02-15T17:01:49.122Z,-1.63
2023-02-15T17:05:11.558Z,-1.61
2023-02-15T17:08:16.767Z,-1.60
2023-02-15T17:11:33.648Z,-1.60
2023-02-15T17:14:42.675Z,-1.63
2023-02-15T17:17:44.733Z,-1.67
2023-02-15T17:20:48.818Z,-1.77
2023-02-15T17:23:52.289Z,-1.77
2023-02-15T17:27:00.918Z,-1.75
2023-02-15T17:30:14.430Z,-1.79
2023-02-15T17:33:23.512Z,-1.80
2023-02-15T17:36:30.411Z,-1.84
2023-02-15T17:39:33.542Z,-1.86
2023-02-15T17:42:35.424Z,-1.79
2023-02-15T17:45:45.410Z,-1.81
2023-02-15T17:48:49.362Z,-1.82
2023-02-15T17:51:51.466Z,-1.82
2023-02-15T17:55:11.844Z,-1.83
2023-02-15T17:58:21.348Z,-1.87
2023-02-15T18:01:42.059Z,-1.93
2023-02-15T18:05:02.758Z,-1.91
2023-02-15T18:08:24.818Z,-1.92
2023-02-15T18:11:39.027Z,-1.96
2023-02-15T18:14:41.022Z,-2.02
2023-02-15T18:17:46.253Z,-2.02
2023-02-15T18:20:48.213Z,-2.05
2023-02-15T18:23:50.322Z,-2.06
2023-02-15T18:26:55.444Z,-2.12
2023-02-15T18:29:57.452Z,-2.14
2023-02-15T18:33:00.776Z,-2.20
2023-02-15T18:36:06.278Z,-2.26
2023-02-15T18:39:24.829Z,-2.30
2023-02-15T18:42:31.520Z,-2.37
2023-02-15T18:45:35.268Z,-2.45
2023-02-15T18:48:37.362Z,-2.45
2023-02-15T18:51:42.804Z,-2.50
2023-02-15T18:54:49.620Z,-2.49
2023-02-15T18:57:53.653Z,-2.52
2023-02-15T19:00:56.565Z,-2.51
2023-02-15T19:03:58.408Z,-2.52
2023-02-15T19:07:00.625Z,-2.49
2023-02-15T19:10:06.577Z,-2.50
2023-02-15T19:13:13.262Z,-2.55
2023-02-15T19:16:27.855Z,-2.54
2023-02-15T19:19:29.777Z,-2.54
2023-02-15T19:22:32.784Z,-2.53
2023-02-15T19:25:38.116Z,-2.61
2023-02-15T19:28:40.056Z,-2.55
2023-02-15T19:31:42.345Z,-2.57
2023-02-15T19:34:44.329Z,-2.60
2023-02-15T19:37:50.552Z,-2.68
2023-02-15T19:40:52.699Z,-2.67
2023-02-15T19:43:56.072Z,-2.71
2023-02-15T19:46:57.979Z,-2.74
2023-02-15T19:50:03.664Z,-2.78
2023-02-15T19:53:05.805Z,-2.77
2023-02-15T19:56:24.418Z,-2.79
2023-02-15T19:59:28.268Z,-2.83
2023-02-15T20:02:30.188Z,-2.84
2023-02-15T20:05:34.999Z,-2.83
2023-02-15T20:08:36.913Z,-2.93
2023-02-15T20:11:38.879Z,-3.01
2023-02-15T20:14:42.679Z,-3.02
2023-02-15T20:17:44.561Z,-3.11
2023-02-15T20:20:51.048Z,-3.16
2023-02-15T20:23:53.083Z,-3.18
2023-02-15T20:26:54.986Z,-3.22
2023-02-15T20:29:57.098Z,-3.23
2023-02-15T20:32:59.220Z,-3.24
2023-02-15T20:36:01.195Z,-3.29
2023-02-15T20:39:12.274Z,-3.35
2023-02-15T20:42:19.542Z,-3.26
2023-02-15T20:45:24.497Z,-3.20
2023-02-15T20:48:26.636Z,-3.14
2023-02-15T20:51:28.593Z,-3.12
2023-02-15T20:54:35.157Z,-3.24
2023-02-15T20:57:38.325Z,-3.16
2023-02-15T21:00:40.274Z,-3.11
2023-02-15T21:03:42.846Z,-3.10
2023-02-15T21:06:45.407Z,-3.17
2023-02-15T21:09:47.575Z,-3.14
2023-02-15T21:12:51.190Z,-3.13
2023-02-15T21:15:57.408Z,-3.14
2023-02-15T21:18:59.378Z,-3.16
2023-02-15T21:22:01.270Z,-3.21
2023-02-15T21:25:03.278Z,-3.23
2023-02-15T21:28:08.568Z,-3.31
2023-02-15T21:31:24.385Z,-3.35
2023-02-15T21:34:27.445Z,-3.41
2023-02-15T21:37:35.367Z,-3.52
2023-02-15T21:40:37.406Z,-3.55
2023-02-15T21:43:57.581Z,-3.59
2023-02-15T21:47:18.284Z,-3.68
2023-02-15T21:50:42.150Z,-3.79
2023-02-15T21:53:46.327Z,-3.84
2023-02-15T21:56:51.050Z,-3.87
2023-02-15T21:59:52.941Z,-3.88
2023-02-15T22:02:58.288Z,-3.88
2023-02-15T22:06:00.720Z,-3.88
2023-02-15T22:09:02.573Z,-3.90
2023-02-15T22:12:04.739Z,-3.84
2023-02-15T22:15:07.089Z,-3.84
2023-02-15T22:18:20.043Z,-3.83
2023-02-15T22:21:22.383Z,-3.79
2023-02-15T22:24:24.290Z,-3.82
2023-02-15T22:27:28.027Z,-3.82
2023-02-15T22:30:36.253Z,-3.79
2023-02-15T22:33:38.341Z,-3.84
2023-02-15T22:36:40.230Z,-3.89
2023-02-15T22:39:42.155Z,-3.93
2023-02-15T22:42:49.850Z,-3.96
2023-02-15T22:45:51.880Z,-4.03
2023-02-15T22:48:53.965Z,-4.05
2023-02-15T22:51:55.867Z,-4.05
2023-02-15T22:54:57.741Z,-4.03
2023-02-15T22:58:00.391Z,-4.03
2023-02-15T23:01:03.771Z,-4.07
2023-02-15T23:04:06.016Z,-4.11
2023-02-15T23:07:16.882Z,-4.21
2023-02-15T23:10:21.434Z,-4.28
2023-02-15T23:13:27.593Z,-4.33
2023-02-15T23:16:30.046Z,-4.40
2023-02-15T23:19:32.258Z,-4.46
2023-02-15T23:22:34.148Z,-4.54
2023-02-15T23:25:36.093Z,-4.59
2023-02-15T23:28:38.669Z,-4.65
2023-02-15T23:31:43.888Z,-4.70
2023-02-15T23:34:45.979Z,-4.78
2023-02-15T23:37:48.151Z,-4.82
2023-02-15T23:41:16.134Z,-4.85
2023-02-15T23:44:19.422Z,-4.87
2023-02-15T23:48:01.336Z,-4.94
2023-02-15T23:51:03.952Z,-4.98
2023-02-15T23:54:06.007Z,-5.03
2023-02-15T23:57:12.636Z,-5.11
